Time;durP1;ratioP1;P1;durP2;ratioP2;P2;SDS_P1;SDS_P2;PMS_P1;PMS_P2;Temp;Humidity;BMP_temperature;BMP_pressure;BME280_temperature;BME280_humidity;BME280_pressure;Samples;Min_cycle;Max_cycle;Signal;HPM_P1;HPM_P2
2022/11/10 00:01:32;;;;;;;13.93;5.10;;;;;;;;;;6200073;23;20442;-75
2022/11/10 00:03:59;;;;;;;7.07;4.20;;;;;;;;;;6202393;23;20520;-79
2022/11/10 00:06:25;;;;;;;7.57;4.70;;;;;;;;;;6203405;23;20382;-79
2022/11/10 00:08:51;;;;;;;10.82;4.85;;;;;;;;;;6203995;23;20004;-79
2022/11/10 00:11:17;;;;;;;10.48;4.88;;;;;;;;;;6201618;23;20077;-79
2022/11/10 00:19:16;;;;;;;10.85;4.82;;;;;;;;;;6203096;23;20090;-79
2022/11/10 00:21:42;;;;;;;9.73;4.45;;;;;;;;;;6202764;23;20008;-79
2022/11/10 00:24:08;;;;;;;10.13;4.20;;;;;;;;;;6203311;23;20027;-79
2022/11/10 00:26:35;;;;;;;10.70;4.63;;;;;;;;;;6202898;23;20410;-71
2022/11/10 00:29:01;;;;;;;7.93;4.95;;;;;;;;;;6203735;23;20088;-77
2022/11/10 00:31:27;;;;;;;13.32;4.90;;;;;;;;;;6203519;23;20369;-78
2022/11/10 00:33:53;;;;;;;11.73;4.95;;;;;;;;;;6204116;23;20096;-77
2022/11/10 00:36:19;;;;;;;6.88;3.85;;;;;;;;;;6200720;23;19996;-71
2022/11/10 00:38:45;;;;;;;8.70;4.25;;;;;;;;;;6203203;23;20044;-72
2022/11/10 00:41:11;;;;;;;8.48;4.47;;;;;;;;;;6203371;23;20031;-79
2022/11/10 00:43:38;;;;;;;8.40;4.25;;;;;;;;;;6202312;23;20436;-79
2022/11/10 00:46:04;;;;;;;13.20;4.60;;;;;;;;;;6203971;23;20004;-79
2022/11/10 00:48:30;;;;;;;7.85;4.57;;;;;;;;;;6203462;23;20054;-78
2022/11/10 00:50:57;;;;;;;8.10;5.07;;;;;;;;;;6203461;23;20116;-71
2022/11/10 00:53:23;;;;;;;11.65;4.32;;;;;;;;;;6203582;23;20040;-72
2022/11/10 00:55:49;;;;;;;8.70;4.53;;;;;;;;;;6204298;23;20015;-80
2022/11/10 00:58:15;;;;;;;10.80;4.05;;;;;;;;;;6201565;23;20489;-79
2022/11/10 01:00:41;;;;;;;9.10;4.65;;;;;;;;;;6203750;23;20430;-72
2022/11/10 01:03:08;;;;;;;7.50;4.53;;;;;;;;;;6204023;23;20001;-73
2022/11/10 01:05:37;;;;;;;13.32;5.35;;;;;;;;;;6204179;23;20005;-79
2022/11/10 01:08:04;;;;;;;9.18;4.20;;;;;;;;;;6175626;23;20348;-79
2022/11/10 01:10:30;;;;;;;8.85;4.85;;;;;;;;;;6203658;23;20521;-79
2022/11/10 01:12:56;;;;;;;8.38;4.55;;;;;;;;;;6204172;23;20020;-78
2022/11/10 01:15:22;;;;;;;9.30;4.43;;;;;;;;;;6203970;23;20075;-79
2022/11/10 01:17:48;;;;;;;10.13;4.15;;;;;;;;;;6203756;23;20091;-78
2022/11/10 01:20:15;;;;;;;10.30;4.13;;;;;;;;;;6203020;23;19997;-80
2022/11/10 01:22:41;;;;;;;10.30;4.05;;;;;;;;;;6175222;23;20429;-79
2022/11/10 01:25:08;;;;;;;6.80;4.00;;;;;;;;;;6203895;23;20414;-80
2022/11/10 01:27:34;;;;;;;7.15;4.13;;;;;;;;;;6177126;23;20005;-80
2022/11/10 01:30:00;;;;;;;7.45;3.70;;;;;;;;;;6202864;23;19996;-79
2022/11/10 01:32:26;;;;;;;8.82;4.00;;;;;;;;;;6203733;23;20594;-79
2022/11/10 01:34:52;;;;;;;13.48;4.00;;;;;;;;;;6201850;23;20038;-79
2022/11/10 01:37:19;;;;;;;8.13;4.22;;;;;;;;;;6177670;23;20001;-75
2022/11/10 01:39:45;;;;;;;9.00;4.22;;;;;;;;;;6203109;23;20020;-78
2022/11/10 01:42:11;;;;;;;8.93;4.45;;;;;;;;;;6203462;23;20008;-79
2022/11/10 01:44:39;;;;;;;9.48;4.50;;;;;;;;;;6203344;23;20008;-80
2022/11/10 01:47:05;;;;;;;10.30;4.70;;;;;;;;;;6203847;23;20012;-78
2022/11/10 01:49:34;;;;;;;12.18;4.75;;;;;;;;;;6201284;23;19996;-72
2022/11/10 01:52:12;;;;;;;12.95;4.68;;;;;;;;;;6203813;23;20005;-73
2022/11/10 01:54:42;;;;;;;8.93;4.38;;;;;;;;;;6202662;23;20001;-79
2022/11/10 01:57:11;;;;;;;8.35;4.15;;;;;;;;;;6203401;23;20008;-79
2022/11/10 01:59:40;;;;;;;9.80;4.45;;;;;;;;;;6203644;23;20792;-79
2022/11/10 02:02:20;;;;;;;12.07;5.40;;;;;;;;;;6203794;23;20001;-79
2022/11/10 02:04:47;;;;;;;9.18;5.32;;;;;;;;;;6201649;23;20030;-78
2022/11/10 02:07:13;;;;;;;8.65;4.63;;;;;;;;;;6203269;23;20008;-78
2022/11/10 02:09:39;;;;;;;7.18;4.53;;;;;;;;;;6203152;23;20009;-78
2022/11/10 02:12:05;;;;;;;12.13;4.85;;;;;;;;;;6203388;23;20085;-79
2022/11/10 02:14:32;;;;;;;8.35;4.07;;;;;;;;;;6201197;23;20001;-78
2022/11/10 02:16:58;;;;;;;6.85;5.22;;;;;;;;;;6203606;23;20040;-79
2022/11/10 02:19:25;;;;;;;7.65;4.13;;;;;;;;;;6203374;23;20414;-78
2022/11/10 02:21:52;;;;;;;8.95;4.53;;;;;;;;;;6177182;23;20415;-79
2022/11/10 02:24:18;;;;;;;6.95;4.15;;;;;;;;;;6203714;23;20009;-77
2022/11/10 02:26:54;;;;;;;8.88;4.13;;;;;;;;;;6203694;23;20007;-75
2022/11/10 02:29:20;;;;;;;5.90;4.35;;;;;;;;;;6201194;23;20334;-79
2022/11/10 02:31:46;;;;;;;9.32;4.22;;;;;;;;;;6203448;23;20071;-78
2022/11/10 02:34:12;;;;;;;10.93;4.47;;;;;;;;;;6204617;23;20337;-72
2022/11/10 02:36:38;;;;;;;8.50;4.68;;;;;;;;;;6203752;23;20001;-77
2022/11/10 02:39:05;;;;;;;6.95;4.30;;;;;;;;;;6205165;23;19996;-78
2022/11/10 02:41:31;;;;;;;7.45;4.38;;;;;;;;;;6205023;23;20000;-77
2022/11/10 02:43:57;;;;;;;9.90;4.60;;;;;;;;;;6205026;23;20024;-79
2022/11/10 02:46:23;;;;;;;9.63;4.38;;;;;;;;;;6203252;23;20044;-73
2022/11/10 02:48:50;;;;;;;9.05;4.20;;;;;;;;;;6177767;23;20103;-74
2022/11/10 02:51:16;;;;;;;8.65;4.10;;;;;;;;;;6205437;23;20484;-79
2022/11/10 02:53:42;;;;;;;9.05;4.40;;;;;;;;;;6204642;23;20017;-79
2022/11/10 02:56:08;;;;;;;6.88;4.10;;;;;;;;;;6205236;23;20425;-73
2022/11/10 02:58:35;;;;;;;9.30;4.45;;;;;;;;;;6204725;23;20032;-72
2022/11/10 03:01:04;;;;;;;8.07;4.72;;;;;;;;;;6203332;23;20429;-78
2022/11/10 03:03:30;;;;;;;8.63;4.38;;;;;;;;;;6204814;23;20028;-77
2022/11/10 03:05:57;;;;;;;10.13;4.32;;;;;;;;;;6205162;23;19997;-79
2022/11/10 03:08:23;;;;;;;8.73;4.25;;;;;;;;;;6204852;23;20092;-79
2022/11/10 03:10:52;;;;;;;13.43;4.50;;;;;;;;;;6202798;23;20080;-79
2022/11/10 03:13:18;;;;;;;6.97;4.57;;;;;;;;;;6205249;23;20397;-76
2022/11/10 03:15:46;;;;;;;9.27;4.57;;;;;;;;;;6204983;23;20004;-78
2022/11/10 03:18:12;;;;;;;9.75;5.00;;;;;;;;;;6205250;23;20009;-79
2022/11/10 03:20:40;;;;;;;9.73;4.93;;;;;;;;;;6204217;23;20008;-78
2022/11/10 03:23:06;;;;;;;7.57;4.65;;;;;;;;;;6202959;23;20032;-78
2022/11/10 03:25:33;;;;;;;7.80;4.15;;;;;;;;;;6205025;23;20035;-79
2022/11/10 03:27:59;;;;;;;7.43;4.47;;;;;;;;;;6204659;23;20342;-79
2022/11/10 03:30:26;;;;;;;10.00;5.05;;;;;;;;;;6204485;23;20001;-74
2022/11/10 03:32:52;;;;;;;6.88;4.70;;;;;;;;;;6202854;23;20017;-74
2022/11/10 03:35:18;;;;;;;9.95;4.90;;;;;;;;;;6205027;23;20080;-79
2022/11/10 03:37:44;;;;;;;9.25;4.60;;;;;;;;;;6199458;23;20009;-78
2022/11/10 03:40:11;;;;;;;9.02;4.65;;;;;;;;;;6198015;23;20488;-78
2022/11/10 03:42:41;;;;;;;14.18;4.88;;;;;;;;;;6199186;23;20009;-78
2022/11/10 03:45:07;;;;;;;9.25;4.82;;;;;;;;;;6196809;23;20032;-78
2022/11/10 03:47:33;;;;;;;13.82;5.03;;;;;;;;;;6199356;23;20091;-79
2022/11/10 03:49:59;;;;;;;9.73;4.20;;;;;;;;;;6198387;23;20013;-77
2022/11/10 03:52:25;;;;;;;11.85;4.65;;;;;;;;;;6196630;23;20023;-76
2022/11/10 03:54:51;;;;;;;10.25;5.10;;;;;;;;;;6171924;23;20008;-78
2022/11/10 03:57:18;;;;;;;7.45;4.82;;;;;;;;;;6197602;23;20008;-78
2022/11/10 03:59:44;;;;;;;12.70;4.88;;;;;;;;;;6198217;23;20000;-78
2022/11/10 04:02:10;;;;;;;7.85;4.20;;;;;;;;;;6198230;23;20088;-77
2022/11/10 04:10:06;;;;;;;10.07;4.65;;;;;;;;;;6196662;23;20019;-79
2022/11/10 04:18:20;;;;;;;11.93;4.90;;;;;;;;;;6197060;23;20541;-77
2022/11/10 04:20:46;;;;;;;15.95;4.95;;;;;;;;;;6195854;23;19997;-79
2022/11/10 04:28:51;;;;;;;8.27;4.60;;;;;;;;;;6198542;23;20020;-79
2022/11/10 04:31:18;;;;;;;10.05;4.45;;;;;;;;;;6198788;23;20411;-78
2022/11/10 04:33:44;;;;;;;8.13;4.35;;;;;;;;;;6196455;23;20040;-78
2022/11/10 04:36:12;;;;;;;10.27;4.38;;;;;;;;;;6198435;23;20001;-78
2022/11/10 04:38:39;;;;;;;8.18;4.22;;;;;;;;;;6200821;23;20009;-78
2022/11/10 04:41:05;;;;;;;12.23;4.63;;;;;;;;;;6198399;23;20007;-79
2022/11/10 04:43:32;;;;;;;10.15;4.57;;;;;;;;;;6198792;23;20008;-79
2022/11/10 04:45:58;;;;;;;12.60;5.35;;;;;;;;;;6198036;23;20007;-78
2022/11/10 04:48:25;;;;;;;10.20;4.80;;;;;;;;;;6196143;23;20001;-78
2022/11/10 04:50:51;;;;;;;8.50;4.60;;;;;;;;;;6197862;23;20011;-76
2022/11/10 04:53:18;;;;;;;14.35;6.25;;;;;;;;;;6198308;23;20016;-79
2022/11/10 04:55:45;;;;;;;9.02;4.63;;;;;;;;;;6194316;23;20001;-78
2022/11/10 04:58:11;;;;;;;10.80;5.00;;;;;;;;;;6198478;23;20004;-78
2022/11/10 05:00:38;;;;;;;10.43;5.30;;;;;;;;;;6198157;23;20568;-79
2022/11/10 05:03:05;;;;;;;8.07;5.07;;;;;;;;;;6196664;23;20012;-78
2022/11/10 05:05:32;;;;;;;10.30;4.80;;;;;;;;;;6197903;23;20038;-77
2022/11/10 05:07:58;;;;;;;12.90;5.68;;;;;;;;;;6198092;23;20344;-78
2022/11/10 05:10:25;;;;;;;6.40;5.07;;;;;;;;;;6198325;23;20064;-78
2022/11/10 05:12:55;;;;;;;10.35;4.95;;;;;;;;;;6172256;23;20096;-78
2022/11/10 05:15:21;;;;;;;15.48;5.75;;;;;;;;;;6196320;23;20429;-78
2022/11/10 05:17:48;;;;;;;9.25;4.93;;;;;;;;;;6197925;23;20103;-78
2022/11/10 05:20:15;;;;;;;8.95;5.13;;;;;;;;;;6197747;23;20186;-77
2022/11/10 05:22:43;;;;;;;12.85;5.60;;;;;;;;;;6170959;23;20091;-79
2022/11/10 05:25:10;;;;;;;11.32;5.00;;;;;;;;;;6197674;23;20437;-79
2022/11/10 05:27:36;;;;;;;9.98;5.82;;;;;;;;;;6196058;23;20040;-79
2022/11/10 05:30:02;;;;;;;10.85;5.40;;;;;;;;;;6197351;23;20005;-79
2022/11/10 05:32:28;;;;;;;16.70;5.53;;;;;;;;;;6197601;23;20012;-78
2022/11/10 05:34:54;;;;;;;9.30;4.93;;;;;;;;;;6195651;23;20017;-79
2022/11/10 05:37:20;;;;;;;9.88;5.00;;;;;;;;;;6197779;23;20062;-80
2022/11/10 05:39:46;;;;;;;9.85;5.50;;;;;;;;;;6197436;23;20003;-76
2022/11/10 05:42:13;;;;;;;6.43;5.00;;;;;;;;;;6171727;23;20410;-79
2022/11/10 05:44:39;;;;;;;10.35;5.53;;;;;;;;;;6174255;23;20391;-79
2022/11/10 05:47:05;;;;;;;8.07;5.38;;;;;;;;;;6198001;23;20001;-78
2022/11/10 05:49:31;;;;;;;10.85;4.93;;;;;;;;;;6200554;23;20008;-78
2022/11/10 05:51:57;;;;;;;14.35;5.57;;;;;;;;;;6199993;23;20099;-79
2022/11/10 05:54:23;;;;;;;12.43;5.65;;;;;;;;;;6201132;23;20043;-79
2022/11/10 05:56:50;;;;;;;8.15;6.00;;;;;;;;;;6199189;23;19992;-80
2022/11/10 05:59:16;;;;;;;13.05;6.22;;;;;;;;;;6199777;23;20107;-79
2022/11/10 06:01:42;;;;;;;10.70;6.03;;;;;;;;;;6200433;23;20067;-79
2022/11/10 06:04:09;;;;;;;11.55;5.65;;;;;;;;;;6172676;23;20079;-79
2022/11/10 06:06:35;;;;;;;11.57;6.38;;;;;;;;;;6199853;23;20424;-76
2022/11/10 06:09:01;;;;;;;12.27;5.50;;;;;;;;;;6197618;23;20075;-74
2022/11/10 06:11:27;;;;;;;12.68;6.28;;;;;;;;;;6173235;23;20004;-79
2022/11/10 06:13:53;;;;;;;11.45;6.30;;;;;;;;;;6199396;23;20028;-79
2022/11/10 06:16:19;;;;;;;7.78;5.60;;;;;;;;;;6199618;23;19997;-79
2022/11/10 06:18:46;;;;;;;11.85;6.40;;;;;;;;;;6197937;23;20334;-79
2022/11/10 06:21:12;;;;;;;13.32;5.93;;;;;;;;;;6197467;23;20295;-78
2022/11/10 06:23:38;;;;;;;7.85;5.60;;;;;;;;;;6199462;23;20062;-79
2022/11/10 06:26:04;;;;;;;17.15;6.40;;;;;;;;;;6201551;23;20016;-76
2022/11/10 06:28:30;;;;;;;13.02;5.90;;;;;;;;;;6202328;23;20035;-79
2022/11/10 06:30:58;;;;;;;11.57;7.10;;;;;;;;;;6200378;23;20072;-79
2022/11/10 06:33:24;;;;;;;10.90;6.18;;;;;;;;;;6201814;23;20036;-79
2022/11/10 06:35:51;;;;;;;8.38;5.93;;;;;;;;;;6202581;23;20102;-76
2022/11/10 06:38:18;;;;;;;9.93;6.25;;;;;;;;;;6202416;23;20004;-77
2022/11/10 06:40:44;;;;;;;7.05;5.13;;;;;;;;;;6201741;23;20002;-76
2022/11/10 06:43:10;;;;;;;7.57;5.80;;;;;;;;;;6202103;23;20001;-77
2022/11/10 06:45:36;;;;;;;15.40;6.65;;;;;;;;;;6173488;23;20008;-78
2022/11/10 06:48:13;;;;;;;8.93;5.80;;;;;;;;;;6201837;23;20009;-78
2022/11/10 06:50:39;;;;;;;14.15;6.90;;;;;;;;;;6201834;23;20011;-73
2022/11/10 06:53:05;;;;;;;12.18;6.13;;;;;;;;;;6202160;23;20373;-74
2022/11/10 06:55:31;;;;;;;8.70;6.07;;;;;;;;;;6200913;23;20001;-83
2022/11/10 06:57:58;;;;;;;9.70;5.43;;;;;;;;;;6202399;23;20148;-81
2022/11/10 07:00:25;;;;;;;8.00;5.25;;;;;;;;;;6202105;23;20067;-82
2022/11/10 07:03:07;;;;;;;9.90;5.85;;;;;;;;;;6202292;23;20004;-81
2022/11/10 07:05:34;;;;;;;10.60;5.70;;;;;;;;;;6200394;23;19997;-75
2022/11/10 07:08:08;;;;;;;11.07;6.28;;;;;;;;;;6174951;23;20015;-75
2022/11/10 07:10:35;;;;;;;9.48;4.85;;;;;;;;;;6201939;23;20000;-77
2022/11/10 07:13:02;;;;;;;8.02;5.40;;;;;;;;;;6201849;23;20021;-78
2022/11/10 07:15:29;;;;;;;10.25;6.07;;;;;;;;;;6201700;23;19997;-78
2022/11/10 07:17:55;;;;;;;8.95;5.65;;;;;;;;;;6202166;23;20101;-77
2022/11/10 07:20:21;;;;;;;10.23;5.28;;;;;;;;;;6200440;23;20029;-78
2022/11/10 07:22:48;;;;;;;7.13;4.80;;;;;;;;;;6201971;23;20005;-78
2022/11/10 07:25:14;;;;;;;5.57;4.88;;;;;;;;;;6201480;23;20341;-77
2022/11/10 07:27:40;;;;;;;6.63;5.07;;;;;;;;;;6201925;23;20059;-76
2022/11/10 07:30:07;;;;;;;13.48;6.00;;;;;;;;;;6201374;23;20007;-75
2022/11/10 07:32:33;;;;;;;11.40;5.72;;;;;;;;;;6200077;23;20020;-77
2022/11/10 07:34:59;;;;;;;9.55;5.78;;;;;;;;;;6201693;23;20021;-75
2022/11/10 07:37:25;;;;;;;11.07;6.10;;;;;;;;;;6174951;23;20027;-77
2022/11/10 07:39:52;;;;;;;9.57;6.03;;;;;;;;;;6201620;23;20147;-77
2022/11/10 07:42:18;;;;;;;8.13;5.40;;;;;;;;;;6175299;23;20380;-77
2022/11/10 07:44:44;;;;;;;10.02;6.25;;;;;;;;;;6201398;23;20485;-76
2022/11/10 07:47:11;;;;;;;6.50;5.43;;;;;;;;;;6199862;23;20596;-76
2022/11/10 07:49:37;;;;;;;8.98;5.32;;;;;;;;;;6201405;23;20075;-78
2022/11/10 07:52:03;;;;;;;9.35;5.53;;;;;;;;;;6201944;23;20001;-77
2022/11/10 07:54:29;;;;;;;10.30;5.65;;;;;;;;;;6200981;23;20008;-77
2022/11/10 07:56:55;;;;;;;12.40;6.00;;;;;;;;;;6201093;23;20000;-77
2022/11/10 07:59:21;;;;;;;9.23;5.85;;;;;;;;;;6199878;23;20092;-77
2022/11/10 08:01:48;;;;;;;10.60;5.65;;;;;;;;;;6201245;23;20064;-78
2022/11/10 08:04:14;;;;;;;10.80;5.95;;;;;;;;;;6201523;23;20594;-77
2022/11/10 08:06:40;;;;;;;10.98;5.32;;;;;;;;;;6200283;23;20004;-77
2022/11/10 08:09:06;;;;;;;10.23;5.30;;;;;;;;;;6201558;23;20407;-77
2022/11/10 08:11:32;;;;;;;7.35;5.20;;;;;;;;;;6201031;23;20059;-77
2022/11/10 08:13:58;;;;;;;10.77;5.90;;;;;;;;;;6201837;23;20036;-77
2022/11/10 08:16:24;;;;;;;9.35;6.25;;;;;;;;;;6199244;23;20024;-77
2022/11/10 08:18:51;;;;;;;9.57;6.05;;;;;;;;;;6200985;23;20094;-76
2022/11/10 08:21:17;;;;;;;7.63;5.45;;;;;;;;;;6200838;23;20083;-77
2022/11/10 08:23:43;;;;;;;12.30;6.00;;;;;;;;;;6199488;23;20008;-77
2022/11/10 08:26:09;;;;;;;13.57;5.57;;;;;;;;;;6197834;23;20128;-77
2022/11/10 08:28:35;;;;;;;8.48;5.18;;;;;;;;;;6199600;23;20031;-77
2022/11/10 08:31:03;;;;;;;8.15;6.00;;;;;;;;;;6200505;23;20066;-77
2022/11/10 08:33:29;;;;;;;13.52;6.32;;;;;;;;;;6200805;23;20047;-78
2022/11/10 08:35:55;;;;;;;9.73;6.32;;;;;;;;;;6197155;23;20068;-77
2022/11/10 08:38:23;;;;;;;12.23;6.05;;;;;;;;;;6172073;23;20016;-78
2022/11/10 08:40:49;;;;;;;9.50;6.35;;;;;;;;;;6197179;23;20009;-78
2022/11/10 08:43:16;;;;;;;6.85;5.43;;;;;;;;;;6200362;23;20075;-78
2022/11/10 08:45:42;;;;;;;7.57;5.45;;;;;;;;;;6200525;23;20079;-78
2022/11/10 08:48:13;;;;;;;12.38;5.80;;;;;;;;;;6198781;23;20014;-78
2022/11/10 08:50:39;;;;;;;8.18;5.57;;;;;;;;;;6200515;23;20004;-77
2022/11/10 08:53:09;;;;;;;13.27;5.90;;;;;;;;;;6200203;23;20008;-78
2022/11/10 08:55:35;;;;;;;9.25;6.50;;;;;;;;;;6199948;23;20078;-77
2022/11/10 08:58:02;;;;;;;8.20;5.47;;;;;;;;;;6200332;23;20432;-78
2022/11/10 09:00:29;;;;;;;19.20;6.10;;;;;;;;;;6197574;23;19993;-77
2022/11/10 09:02:55;;;;;;;10.65;6.13;;;;;;;;;;6200641;23;20004;-77
2022/11/10 09:05:22;;;;;;;13.15;6.40;;;;;;;;;;6200085;23;20000;-79
2022/11/10 09:07:50;;;;;;;8.40;5.68;;;;;;;;;;6199855;23;20004;-78
2022/11/10 09:10:16;;;;;;;12.93;5.80;;;;;;;;;;6198517;23;20007;-76
2022/11/10 09:12:43;;;;;;;8.75;6.13;;;;;;;;;;6200319;23;20623;-75
2022/11/10 09:15:10;;;;;;;15.88;6.93;;;;;;;;;;6200053;23;20004;-77
2022/11/10 09:17:37;;;;;;;12.20;6.45;;;;;;;;;;6173234;23;20334;-77
2022/11/10 09:20:04;;;;;;;9.20;5.88;;;;;;;;;;6200088;23;20440;-77
2022/11/10 09:22:31;;;;;;;13.50;7.00;;;;;;;;;;6199894;23;20004;-78
2022/11/10 09:24:57;;;;;;;12.65;7.47;;;;;;;;;;6198677;23;20000;-77
2022/11/10 09:27:23;;;;;;;13.93;6.78;;;;;;;;;;6200941;23;20016;-78
2022/11/10 09:29:49;;;;;;;11.52;6.95;;;;;;;;;;6199878;23;20000;-77
2022/11/10 09:32:15;;;;;;;10.50;6.57;;;;;;;;;;6200337;23;20008;-77
2022/11/10 09:34:42;;;;;;;13.30;7.30;;;;;;;;;;6200301;23;20083;-75
2022/11/10 09:37:08;;;;;;;16.00;8.63;;;;;;;;;;6200218;23;20001;-76
2022/11/10 09:39:34;;;;;;;15.38;8.60;;;;;;;;;;6199048;23;20364;-74
2022/11/10 09:42:01;;;;;;;17.90;9.00;;;;;;;;;;6200434;23;20523;-75
2022/11/10 09:44:28;;;;;;;14.00;8.57;;;;;;;;;;6201773;23;20087;-75
2022/11/10 09:46:59;;;;;;;15.18;7.60;;;;;;;;;;6201663;23;19996;-75
2022/11/10 09:49:26;;;;;;;15.80;7.88;;;;;;;;;;6200134;23;20074;-76
2022/11/10 09:51:53;;;;;;;10.80;6.20;;;;;;;;;;6201655;23;20005;-75
2022/11/10 09:54:34;;;;;;;11.80;6.50;;;;;;;;;;6201995;23;20005;-76
2022/11/10 09:57:01;;;;;;;17.00;6.63;;;;;;;;;;6201316;23;20025;-76
2022/11/10 09:59:28;;;;;;;9.40;5.40;;;;;;;;;;6202042;23;20087;-75
2022/11/10 10:01:54;;;;;;;15.05;6.25;;;;;;;;;;6199981;23;20005;-79
2022/11/10 10:04:30;;;;;;;14.07;5.82;;;;;;;;;;6201608;23;20075;-73
2022/11/10 10:07:08;;;;;;;6.78;4.07;;;;;;;;;;6201977;23;20001;-76
2022/11/10 10:09:35;;;;;;;10.05;4.90;;;;;;;;;;6201837;23;19997;-73
2022/11/10 10:12:22;;;;;;;10.80;4.82;;;;;;;;;;6199697;23;20004;-77
2022/11/10 10:15:06;;;;;;;10.00;5.53;;;;;;;;;;6201668;23;20004;-77
2022/11/10 10:17:38;;;;;;;7.75;5.03;;;;;;;;;;6201752;23;20028;-78
2022/11/10 10:20:09;;;;;;;13.45;5.15;;;;;;;;;;6201214;23;20526;-87
2022/11/10 10:22:35;;;;;;;8.20;4.82;;;;;;;;;;6202102;23;20088;-82
2022/11/10 10:25:03;;;;;;;9.80;4.97;;;;;;;;;;6202135;23;20527;-76
2022/11/10 10:27:29;;;;;;;8.07;4.95;;;;;;;;;;6202169;23;20032;-76
2022/11/10 10:29:56;;;;;;;7.15;4.43;;;;;;;;;;6199879;23;20082;-76
2022/11/10 10:32:22;;;;;;;8.50;4.93;;;;;;;;;;6201982;23;20491;-76
2022/11/10 10:34:48;;;;;;;11.13;4.60;;;;;;;;;;6201530;23;20080;-76
2022/11/10 10:37:34;;;;;;;6.45;3.88;;;;;;;;;;6202227;23;20111;-77
2022/11/10 10:40:00;;;;;;;5.63;3.90;;;;;;;;;;6180972;23;20004;-76
2022/11/10 10:42:34;;;;;;;9.55;4.78;;;;;;;;;;6201409;23;20075;-76
2022/11/10 10:45:20;;;;;;;8.20;4.20;;;;;;;;;;6172900;23;20009;-77
2022/11/10 10:47:48;;;;;;;10.48;4.93;;;;;;;;;;6181540;23;20004;-76
2022/11/10 10:50:22;;;;;;;8.60;4.80;;;;;;;;;;6201410;23;20009;-75
2022/11/10 10:53:07;;;;;;;7.80;4.43;;;;;;;;;;6200214;23;20017;-75
2022/11/10 10:55:34;;;;;;;9.73;4.53;;;;;;;;;;6200921;23;20028;-75
2022/11/10 10:58:02;;;;;;;4.55;3.80;;;;;;;;;;6201608;23;20011;-76
2022/11/10 11:00:28;;;;;;;8.07;4.50;;;;;;;;;;6198301;23;20008;-75
2022/11/10 11:03:05;;;;;;;8.68;4.55;;;;;;;;;;6174867;23;20085;-75
2022/11/10 11:05:31;;;;;;;8.00;4.20;;;;;;;;;;6201087;23;20049;-75
2022/11/10 11:07:58;;;;;;;9.18;4.15;;;;;;;;;;6174537;23;20004;-76
2022/11/10 11:10:29;;;;;;;10.95;5.15;;;;;;;;;;6199997;23;20039;-76
2022/11/10 11:12:56;;;;;;;11.30;4.13;;;;;;;;;;6200153;23;20075;-76
2022/11/10 11:15:27;;;;;;;7.80;4.25;;;;;;;;;;6198515;23;20718;-76
2022/11/10 11:18:01;;;;;;;8.10;3.70;;;;;;;;;;6200830;23;20008;-76
2022/11/10 11:20:30;;;;;;;6.85;3.90;;;;;;;;;;6199711;23;20005;-76
2022/11/10 11:23:00;;;;;;;6.30;3.03;;;;;;;;;;6173799;23;20061;-76
2022/11/10 11:25:33;;;;;;;5.18;3.53;;;;;;;;;;6198704;23;20007;-76
2022/11/10 11:28:05;;;;;;;6.72;3.78;;;;;;;;;;6200971;23;20505;-76
2022/11/10 11:30:41;;;;;;;10.90;4.20;;;;;;;;;;6172963;23;20015;-75
2022/11/10 11:33:16;;;;;;;4.70;3.17;;;;;;;;;;6199981;23;20012;-76
2022/11/10 11:35:49;;;;;;;7.63;3.95;;;;;;;;;;6198159;23;20100;-76
2022/11/10 11:38:35;;;;;;;6.70;3.72;;;;;;;;;;6199888;23;19997;-76
2022/11/10 11:41:14;;;;;;;7.82;3.70;;;;;;;;;;6139584;23;20069;-76
2022/11/10 11:43:40;;;;;;;6.88;3.97;;;;;;;;;;6200200;23;20001;-76
2022/11/10 11:46:16;;;;;;;7.03;4.13;;;;;;;;;;6198405;23;20008;-76
2022/11/10 11:48:51;;;;;;;9.88;4.15;;;;;;;;;;6199527;23;20456;-76
2022/11/10 11:51:28;;;;;;;7.65;4.80;;;;;;;;;;6199994;23;20060;-75
2022/11/10 11:53:54;;;;;;;9.63;4.32;;;;;;;;;;6200112;23;20008;-76
2022/11/10 11:56:34;;;;;;;5.45;3.83;;;;;;;;;;6199705;23;20003;-76
2022/11/10 11:59:19;;;;;;;6.22;3.70;;;;;;;;;;6199757;23;20577;-76
2022/11/10 12:01:48;;;;;;;7.57;5.25;;;;;;;;;;6171824;23;20004;-76
2022/11/10 12:04:35;;;;;;;6.80;4.82;;;;;;;;;;6199827;23;20005;-76
2022/11/10 12:07:20;;;;;;;10.18;4.82;;;;;;;;;;6199001;23;20084;-77
2022/11/10 12:09:50;;;;;;;8.25;4.45;;;;;;;;;;6199423;23;20011;-76
2022/11/10 12:12:29;;;;;;;6.03;4.40;;;;;;;;;;6199955;23;20466;-76
2022/11/10 12:15:01;;;;;;;9.43;4.07;;;;;;;;;;6197955;23;20000;-76
2022/11/10 12:17:27;;;;;;;5.85;3.58;;;;;;;;;;6199814;23;20000;-76
2022/11/10 12:20:01;;;;;;;7.28;3.60;;;;;;;;;;6199908;23;20429;-76
2022/11/10 12:22:35;;;;;;;7.00;3.92;;;;;;;;;;6200295;23;20005;-76
2022/11/10 12:25:14;;;;;;;4.80;3.50;;;;;;;;;;6199934;23;20011;-76
2022/11/10 12:27:46;;;;;;;5.18;3.92;;;;;;;;;;6172081;23;20004;-76
2022/11/10 12:30:13;;;;;;;7.55;3.80;;;;;;;;;;6199656;23;20563;-76
2022/11/10 12:32:46;;;;;;;8.43;4.15;;;;;;;;;;6199120;23;20039;-75
2022/11/10 12:35:19;;;;;;;8.13;3.92;;;;;;;;;;6171399;23;20044;-76
2022/11/10 12:37:48;;;;;;;10.02;4.20;;;;;;;;;;6199139;23;20004;-76
2022/11/10 12:40:16;;;;;;;8.63;5.05;;;;;;;;;;6199287;23;20074;-75
2022/11/10 12:42:46;;;;;;;8.60;3.92;;;;;;;;;;6198463;23;20426;-76
2022/11/10 12:45:21;;;;;;;6.20;3.70;;;;;;;;;;6199485;23;19996;-76
2022/11/10 12:47:48;;;;;;;6.85;4.53;;;;;;;;;;6172887;23;20039;-76
2022/11/10 12:50:20;;;;;;;7.45;4.43;;;;;;;;;;6197465;23;20000;-76
2022/11/10 12:52:49;;;;;;;10.90;4.45;;;;;;;;;;6199453;23;20096;-76
2022/11/10 12:55:15;;;;;;;8.57;4.47;;;;;;;;;;6199584;23;20056;-75
2022/11/10 12:57:43;;;;;;;8.68;4.15;;;;;;;;;;6199350;23;20491;-75
2022/11/10 13:00:18;;;;;;;8.07;4.40;;;;;;;;;;6200260;23;20001;-76
2022/11/10 13:02:46;;;;;;;7.88;4.20;;;;;;;;;;6199400;23;20012;-76
2022/11/10 13:05:13;;;;;;;6.72;4.45;;;;;;;;;;6198027;23;20040;-76
2022/11/10 13:07:43;;;;;;;7.60;4.25;;;;;;;;;;6199563;23;20346;-75
2022/11/10 13:10:19;;;;;;;10.65;4.45;;;;;;;;;;6199920;23;20000;-75
2022/11/10 13:13:20;;;;;;;6.57;3.88;;;;;;;;;;6198803;23;20020;-76
2022/11/10 13:15:48;;;;;;;8.25;4.30;;;;;;;;;;6075352;23;20456;-76
2022/11/10 13:18:25;;;;;;;7.80;4.38;;;;;;;;;;6176046;23;20563;-76
2022/11/10 13:20:53;;;;;;;6.70;4.20;;;;;;;;;;6199334;23;20530;-77
2022/11/10 13:23:29;;;;;;;9.27;4.22;;;;;;;;;;6199755;23;19997;-77
2022/11/10 13:25:59;;;;;;;7.85;4.30;;;;;;;;;;6199509;23;20004;-78
2022/11/10 13:28:44;;;;;;;8.95;4.50;;;;;;;;;;6197354;23;20352;-78
2022/11/10 13:31:29;;;;;;;8.13;4.45;;;;;;;;;;6199936;23;19996;-78
2022/11/10 13:34:14;;;;;;;13.13;4.88;;;;;;;;;;6199169;23;20012;-78
2022/11/10 13:36:45;;;;;;;9.48;4.38;;;;;;;;;;6199159;23;20015;-78
2022/11/10 13:39:23;;;;;;;12.38;4.35;;;;;;;;;;6198624;23;20007;-77
2022/11/10 13:41:58;;;;;;;8.00;4.47;;;;;;;;;;6181552;23;20090;-78
2022/11/10 13:44:27;;;;;;;6.53;4.25;;;;;;;;;;6200810;23;20070;-77
2022/11/10 13:47:02;;;;;;;7.55;4.90;;;;;;;;;;6197809;23;20010;-75
2022/11/10 13:49:47;;;;;;;6.13;4.15;;;;;;;;;;6199565;23;19997;-77
2022/11/10 13:52:25;;;;;;;7.65;4.38;;;;;;;;;;6199688;23;20342;-80
2022/11/10 13:54:54;;;;;;;9.52;4.32;;;;;;;;;;6199129;23;20009;-84
2022/11/10 13:57:29;;;;;;;6.90;4.68;;;;;;;;;;6199535;23;20007;-78
2022/11/10 13:59:58;;;;;;;7.50;4.60;;;;;;;;;;6197732;23;20715;-79
2022/11/10 14:02:33;;;;;;;10.07;4.63;;;;;;;;;;6200171;23;20008;-78
2022/11/10 14:05:04;;;;;;;11.35;3.92;;;;;;;;;;6199382;23;19996;-80
2022/11/10 14:07:34;;;;;;;7.57;4.57;;;;;;;;;;6199829;23;20000;-79
2022/11/10 14:10:04;;;;;;;7.47;3.83;;;;;;;;;;6197641;23;20008;-78
2022/11/10 14:12:30;;;;;;;7.25;4.40;;;;;;;;;;6200171;23;20433;-79
2022/11/10 14:14:59;;;;;;;7.70;4.10;;;;;;;;;;6198346;23;20077;-80
2022/11/10 14:17:33;;;;;;;7.85;3.95;;;;;;;;;;6199716;23;20005;-79
2022/11/10 14:20:00;;;;;;;12.85;4.40;;;;;;;;;;6199184;23;20008;-79
2022/11/10 14:22:28;;;;;;;8.23;3.60;;;;;;;;;;6197639;23;20001;-77
2022/11/10 14:25:04;;;;;;;6.35;3.88;;;;;;;;;;6199272;23;20058;-78
2022/11/10 14:27:31;;;;;;;8.50;4.40;;;;;;;;;;6173183;23;20003;-82
2022/11/10 14:30:04;;;;;;;7.07;3.50;;;;;;;;;;6197003;23;20332;-82
2022/11/10 14:32:30;;;;;;;5.95;3.75;;;;;;;;;;6196474;23;20321;-83
2022/11/10 14:34:56;;;;;;;6.93;2.95;;;;;;;;;;6198205;23;20027;-82
2022/11/10 14:37:24;;;;;;;7.90;3.60;;;;;;;;;;6199019;23;20001;-82
2022/11/10 14:39:54;;;;;;;4.85;2.90;;;;;;;;;;6198344;23;20103;-81
2022/11/10 14:42:23;;;;;;;7.45;3.45;;;;;;;;;;6198350;23;20000;-82
2022/11/10 14:44:49;;;;;;;6.13;2.92;;;;;;;;;;6196725;23;20047;-81
2022/11/10 14:47:27;;;;;;;10.63;3.60;;;;;;;;;;6198919;23;20019;-82
2022/11/10 14:50:11;;;;;;;7.88;3.65;;;;;;;;;;6198095;23;20012;-79
2022/11/10 14:52:39;;;;;;;8.50;4.88;;;;;;;;;;6197330;23;20023;-78
2022/11/10 14:55:09;;;;;;;8.85;4.57;;;;;;;;;;6198348;23;20024;-84
2022/11/10 14:57:35;;;;;;;19.75;4.70;;;;;;;;;;6202910;23;20000;-87
2022/11/10 15:00:05;;;;;;;9.70;4.97;;;;;;;;;;6203872;23;20007;-84
2022/11/10 15:02:31;;;;;;;11.13;4.90;;;;;;;;;;6205050;23;20502;-87
2022/11/10 15:04:57;;;;;;;10.95;4.93;;;;;;;;;;6203803;23;20000;-87
2022/11/10 15:07:23;;;;;;;11.73;6.07;;;;;;;;;;6200808;23;20699;-87
2022/11/10 15:10:10;;;;;;;9.27;4.63;;;;;;;;;;6172752;23;20500;-86